Time;durP1;ratioP1;P1;durP2;ratioP2;P2;SDS_P1;SDS_P2;PMS_P1;PMS_P2;Temp;Humidity;BMP_temperature;BMP_pressure;BME280_temperature;BME280_humidity;BME280_pressure;Samples;Min_cycle;Max_cycle;Signal;HPM_P1;HPM_P2
2022/08/06 00:02:12;;;;;;;;;;;;;;;;;;5075213;28;20443;-77
2022/08/06 00:04:37;;;;;;;;;;;;;;;;;;5074811;28;19915;-78
2022/08/06 00:07:03;;;;;;;;;;;;;;;;;;5040159;28;20007;-77
2022/08/06 00:09:30;;;;;;;;;;;;;;;;;;5056532;28;20402;-77
2022/08/06 00:11:55;;;;;;;;;;;;;;;;;;5056749;28;19912;-76
2022/08/06 00:14:20;;;;;;;;;;;;;;;;;;5073840;28;20291;-76
2022/08/06 00:16:46;;;;;;;;;;;;;;;;;;5056041;28;20390;-74
2022/08/06 00:19:11;;;;;;;;;;;;;;;;;;5056333;28;19913;-75
2022/08/06 00:21:37;;;;;;;;;;;;;;;;;;5074544;28;19916;-77
2022/08/06 00:24:02;;;;;;;;;;;;;;;;;;5073440;28;19985;-76
2022/08/06 00:26:28;;;;;;;;;;;;;;;;;;5056044;28;19908;-76
2022/08/06 00:28:54;;;;;;;;;;;;;;;;;;5055725;28;19913;-76
2022/08/06 00:31:20;;;;;;;;;;;;;;;;;;5055439;28;19923;-76
2022/08/06 00:33:45;;;;;;;;;;;;;;;;;;5055340;28;19916;-76
2022/08/06 00:36:10;;;;;;;;;;;;;;;;;;5073313;28;19920;-76
2022/08/06 00:38:36;;;;;;;;;;;;;;;;;;5039068;28;20410;-75
2022/08/06 00:41:01;;;;;;;;;;;;;;;;;;5073313;28;19958;-77
2022/08/06 00:43:27;;;;;;;;;;;;;;;;;;5055438;28;19980;-75
2022/08/06 00:45:52;;;;;;;;;;;;;;;;;;5072962;28;19940;-76
2022/08/06 00:48:17;;;;;;;;;;;;;;;;;;5073235;28;19913;-77
2022/08/06 00:50:43;;;;;;;;;;;;;;;;;;5073186;28;19924;-77
2022/08/06 00:53:08;;;;;;;;;;;;;;;;;;5072848;28;19912;-76
2022/08/06 00:55:34;;;;;;;;;;;;;;;;;;5054683;28;19923;-78
2022/08/06 00:57:59;;;;;;;;;;;;;;;;;;5073150;28;19919;-76
2022/08/06 01:00:24;;;;;;;;;;;;;;;;;;5054956;28;19939;-77
2022/08/06 01:02:50;;;;;;;;;;;;;;;;;;5054555;28;19959;-76
2022/08/06 01:05:15;;;;;;;;;;;;;;;;;;5038585;28;19939;-74
2022/08/06 01:07:40;;;;;;;;;;;;;;;;;;5073127;28;19920;-75
2022/08/06 01:10:06;;;;;;;;;;;;;;;;;;5073269;28;19918;-77
2022/08/06 01:12:31;;;;;;;;;;;;;;;;;;5054975;28;20287;-76
2022/08/06 01:14:57;;;;;;;;;;;;;;;;;;5055162;28;19961;-76
2022/08/06 01:17:22;;;;;;;;;;;;;;;;;;5038411;28;20382;-75
2022/08/06 01:19:47;;;;;;;;;;;;;;;;;;5072498;28;20287;-77
2022/08/06 01:22:13;;;;;;;;;;;;;;;;;;5054657;28;19917;-75
2022/08/06 01:24:39;;;;;;;;;;;;;;;;;;5072166;28;19919;-76
2022/08/06 01:27:04;;;;;;;;;;;;;;;;;;5054772;28;20452;-76
2022/08/06 01:29:30;;;;;;;;;;;;;;;;;;5038339;28;19955;-77
2022/08/06 01:31:55;;;;;;;;;;;;;;;;;;5038011;28;20007;-77
2022/08/06 01:34:20;;;;;;;;;;;;;;;;;;5054228;28;19912;-76
2022/08/06 01:36:46;;;;;;;;;;;;;;;;;;5072509;28;20310;-77
2022/08/06 01:39:11;;;;;;;;;;;;;;;;;;5072410;28;19908;-76
2022/08/06 01:41:39;;;;;;;;;;;;;;;;;;5038038;28;19916;-76
2022/08/06 01:44:05;;;;;;;;;;;;;;;;;;5072222;28;19913;-75
2022/08/06 01:46:30;;;;;;;;;;;;;;;;;;5072590;28;19976;-76
2022/08/06 01:48:55;;;;;;;;;;;;;;;;;;5072570;28;19966;-76
2022/08/06 01:51:21;;;;;;;;;;;;;;;;;;5072361;28;19912;-76
2022/08/06 01:53:46;;;;;;;;;;;;;;;;;;5072290;28;19913;-77
2022/08/06 01:56:11;;;;;;;;;;;;;;;;;;5072369;28;20295;-76
2022/08/06 01:58:37;;;;;;;;;;;;;;;;;;5071575;28;19916;-77
2022/08/06 02:01:02;;;;;;;;;;;;;;;;;;5054402;28;19966;-74
2022/08/06 02:03:28;;;;;;;;;;;;;;;;;;5054040;28;19919;-77
2022/08/06 02:05:53;;;;;;;;;;;;;;;;;;5054698;28;19913;-77
2022/08/06 02:08:18;;;;;;;;;;;;;;;;;;5072520;28;19908;-77
2022/08/06 02:10:44;;;;;;;;;;;;;;;;;;5054330;28;20375;-75
2022/08/06 02:13:09;;;;;;;;;;;;;;;;;;5071997;28;19918;-77
2022/08/06 02:15:34;;;;;;;;;;;;;;;;;;5054425;28;19912;-74
2022/08/06 02:18:00;;;;;;;;;;;;;;;;;;5054692;28;19909;-77
2022/08/06 02:20:25;;;;;;;;;;;;;;;;;;5072206;28;20439;-77
2022/08/06 02:22:51;;;;;;;;;;;;;;;;;;5071688;28;19965;-76
2022/08/06 02:25:16;;;;;;;;;;;;;;;;;;5072151;28;19966;-76
2022/08/06 02:27:41;;;;;;;;;;;;;;;;;;5072078;28;19974;-76
2022/08/06 02:30:07;;;;;;;;;;;;;;;;;;5054058;28;20378;-75
2022/08/06 02:32:32;;;;;;;;;;;;;;;;;;5053392;28;19920;-77
2022/08/06 02:34:58;;;;;;;;;;;;;;;;;;5053772;28;19912;-76
2022/08/06 02:37:23;;;;;;;;;;;;;;;;;;5037520;28;19919;-76
2022/08/06 02:39:49;;;;;;;;;;;;;;;;;;5053662;28;19977;-76
2022/08/06 02:42:14;;;;;;;;;;;;;;;;;;5020933;28;19958;-77
2022/08/06 02:44:39;;;;;;;;;;;;;;;;;;5021079;28;20303;-76
2022/08/06 02:47:05;;;;;;;;;;;;;;;;;;5054391;28;20318;-77
2022/08/06 02:49:30;;;;;;;;;;;;;;;;;;5072058;28;19912;-75
2022/08/06 02:51:55;;;;;;;;;;;;;;;;;;5072221;28;19913;-76
2022/08/06 02:54:21;;;;;;;;;;;;;;;;;;5072092;28;19912;-77
2022/08/06 02:56:46;;;;;;;;;;;;;;;;;;5054813;28;19916;-77
2022/08/06 02:59:11;;;;;;;;;;;;;;;;;;5072217;28;19913;-76
2022/08/06 03:01:37;;;;;;;;;;;;;;;;;;5072215;28;19967;-77
2022/08/06 03:04:02;;;;;;;;;;;;;;;;;;5054741;28;19923;-76
2022/08/06 03:06:27;;;;;;;;;;;;;;;;;;5072545;28;19913;-77
2022/08/06 03:08:53;;;;;;;;;;;;;;;;;;5072587;28;19921;-77
2022/08/06 03:11:18;;;;;;;;;;;;;;;;;;5076084;28;19909;-77
2022/08/06 03:13:44;;;;;;;;;;;;;;;;;;5075813;28;19912;-75
2022/08/06 03:16:09;;;;;;;;;;;;;;;;;;5058314;28;19944;-75
2022/08/06 03:18:35;;;;;;;;;;;;;;;;;;5057767;28;20077;-74
2022/08/06 03:21:01;;;;;;;;;;;;;;;;;;5057622;28;19931;-77
2022/08/06 03:23:26;;;;;;;;;;;;;;;;;;5057060;28;19958;-77
2022/08/06 03:25:51;;;;;;;;;;;;;;;;;;5075343;28;20375;-76
2022/08/06 03:28:17;;;;;;;;;;;;;;;;;;5057945;28;19958;-76
2022/08/06 03:30:42;;;;;;;;;;;;;;;;;;5075239;28;20016;-76
2022/08/06 03:33:07;;;;;;;;;;;;;;;;;;5035026;23;19953;-80
2022/08/06 03:35:33;;;;;;;;;;;;;;;;;;5036117;28;19924;-80
2022/08/06 03:37:58;;;;;;;;;;;;;;;;;;5035900;28;19994;-80
2022/08/06 03:40:24;;;;;;;;;;;;;;;;;;5034396;28;19960;-80
2022/08/06 03:42:49;;;;;;;;;;;;;;;;;;5035158;28;20062;-80
2022/08/06 03:45:14;;;;;;;;;;;;;;;;;;5035947;28;19921;-79
2022/08/06 03:47:40;;;;;;;;;;;;;;;;;;5035723;28;19999;-80
2022/08/06 03:50:05;;;;;;;;;;;;;;;;;;5035674;28;19959;-80
2022/08/06 03:52:30;;;;;;;;;;;;;;;;;;5035580;28;19966;-80
2022/08/06 03:54:56;;;;;;;;;;;;;;;;;;5035720;28;19929;-80
2022/08/06 03:57:21;;;;;;;;;;;;;;;;;;5035652;28;20240;-79
2022/08/06 03:59:46;;;;;;;;;;;;;;;;;;5034536;28;19925;-79
2022/08/06 04:02:12;;;;;;;;;;;;;;;;;;5034390;28;19920;-80
2022/08/06 04:04:37;;;;;;;;;;;;;;;;;;5034736;28;19913;-79
2022/08/06 04:07:02;;;;;;;;;;;;;;;;;;5017678;28;19952;-81
2022/08/06 04:09:28;;;;;;;;;;;;;;;;;;5035085;28;19935;-80
2022/08/06 04:11:53;;;;;;;;;;;;;;;;;;5035070;28;19951;-80
2022/08/06 04:14:18;;;;;;;;;;;;;;;;;;5034756;28;20364;-80
2022/08/06 04:16:44;;;;;;;;;;;;;;;;;;5035031;28;19913;-80
2022/08/06 04:19:09;;;;;;;;;;;;;;;;;;5035775;28;20419;-80
2022/08/06 04:21:34;;;;;;;;;;;;;;;;;;5035167;28;19917;-77
2022/08/06 04:24:00;;;;;;;;;;;;;;;;;;5035424;28;19913;-80
2022/08/06 04:26:27;;;;;;;;;;;;;;;;;;5037015;28;19924;-81
2022/08/06 04:28:52;;;;;;;;;;;;;;;;;;5036150;28;19920;-78
2022/08/06 04:31:18;;;;;;;;;;;;;;;;;;5019475;28;19913;-78
2022/08/06 04:33:43;;;;;;;;;;;;;;;;;;5037829;28;19917;-80
2022/08/06 04:36:08;;;;;;;;;;;;;;;;;;5035478;28;19940;-81
2022/08/06 04:38:34;;;;;;;;;;;;;;;;;;5034562;28;19922;-80
2022/08/06 04:40:59;;;;;;;;;;;;;;;;;;5036809;28;19940;-79
2022/08/06 04:43:24;;;;;;;;;;;;;;;;;;5038046;28;20308;-82
2022/08/06 04:45:50;;;;;;;;;;;;;;;;;;5033625;28;19995;-80
2022/08/06 04:48:15;;;;;;;;;;;;;;;;;;5035151;28;20002;-79
2022/08/06 04:50:40;;;;;;;;;;;;;;;;;;5035897;28;19920;-80
2022/08/06 04:53:06;;;;;;;;;;;;;;;;;;5035110;28;19910;-80
2022/08/06 04:55:31;;;;;;;;;;;;;;;;;;5032802;28;20008;-81
2022/08/06 04:57:56;;;;;;;;;;;;;;;;;;5033914;28;19913;-80
2022/08/06 05:00:22;;;;;;;;;;;;;;;;;;5031998;28;19940;-81
2022/08/06 05:02:47;;;;;;;;;;;;;;;;;;5031495;28;19913;-80
2022/08/06 05:05:13;;;;;;;;;;;;;;;;;;5032673;28;19960;-80
2022/08/06 05:07:38;;;;;;;;;;;;;;;;;;4999908;28;20347;-80
2022/08/06 05:10:03;;;;;;;;;;;;;;;;;;5031865;28;19913;-80
2022/08/06 05:12:29;;;;;;;;;;;;;;;;;;5033308;28;19970;-80
2022/08/06 05:14:54;;;;;;;;;;;;;;;;;;5035197;28;20000;-80
2022/08/06 05:17:20;;;;;;;;;;;;;;;;;;5037159;28;19924;-78
2022/08/06 05:19:45;;;;;;;;;;;;;;;;;;5035200;28;20022;-80
2022/08/06 05:22:10;;;;;;;;;;;;;;;;;;5033081;28;19917;-80
2022/08/06 05:24:36;;;;;;;;;;;;;;;;;;5032892;28;19912;-80
2022/08/06 05:27:01;;;;;;;;;;;;;;;;;;5031930;28;20373;-80
2022/08/06 05:29:26;;;;;;;;;;;;;;;;;;5032799;28;19920;-80
2022/08/06 05:31:52;;;;;;;;;;;;;;;;;;5031622;28;19913;-80
2022/08/06 05:34:17;;;;;;;;;;;;;;;;;;5031150;28;19917;-80
2022/08/06 05:36:42;;;;;;;;;;;;;;;;;;5032424;28;19967;-80
2022/08/06 05:39:08;;;;;;;;;;;;;;;;;;5031409;28;19913;-80
2022/08/06 05:41:36;;;;;;;;;;;;;;;;;;5030978;28;20384;-80
2022/08/06 05:44:02;;;;;;;;;;;;;;;;;;5030565;28;20262;-80
2022/08/06 05:46:27;;;;;;;;;;;;;;;;;;5031288;28;19913;-81
2022/08/06 05:48:52;;;;;;;;;;;;;;;;;;5014841;28;19913;-80
2022/08/06 05:51:18;;;;;;;;;;;;;;;;;;5031025;28;20310;-80
2022/08/06 05:53:43;;;;;;;;;;;;;;;;;;5032027;28;19913;-81
2022/08/06 05:56:08;;;;;;;;;;;;;;;;;;5030704;28;19994;-80
2022/08/06 05:58:34;;;;;;;;;;;;;;;;;;5032527;28;19921;-81
2022/08/06 06:00:59;;;;;;;;;;;;;;;;;;5032513;28;19925;-81
2022/08/06 06:03:25;;;;;;;;;;;;;;;;;;5030581;28;20406;-80
2022/08/06 06:05:52;;;;;;;;;;;;;;;;;;5030269;28;20390;-81
2022/08/06 06:08:19;;;;;;;;;;;;;;;;;;5030975;28;19913;-81
2022/08/06 06:10:45;;;;;;;;;;;;;;;;;;5032153;28;19999;-81
2022/08/06 06:13:11;;;;;;;;;;;;;;;;;;5014333;28;20004;-81
2022/08/06 06:15:36;;;;;;;;;;;;;;;;;;5031918;28;20449;-80
2022/08/06 06:18:01;;;;;;;;;;;;;;;;;;5030970;28;20276;-80
2022/08/06 06:20:26;;;;;;;;;;;;;;;;;;5030608;28;19983;-80
2022/08/06 06:22:52;;;;;;;;;;;;;;;;;;5030432;28;19917;-81
2022/08/06 06:25:17;;;;;;;;;;;;;;;;;;5032039;28;19920;-81
2022/08/06 06:27:43;;;;;;;;;;;;;;;;;;5031645;28;19991;-81
2022/08/06 06:30:08;;;;;;;;;;;;;;;;;;5030866;28;19913;-81
2022/08/06 06:32:33;;;;;;;;;;;;;;;;;;5030039;28;19916;-82
2022/08/06 06:34:59;;;;;;;;;;;;;;;;;;5031882;28;20395;-81
2022/08/06 06:37:24;;;;;;;;;;;;;;;;;;5030571;28;19913;-81
2022/08/06 06:39:51;;;;;;;;;;;;;;;;;;5030640;28;19999;-82
2022/08/06 06:42:16;;;;;;;;;;;;;;;;;;5030394;28;19960;-80
2022/08/06 06:44:41;;;;;;;;;;;;;;;;;;5031367;28;19963;-81
2022/08/06 06:47:07;;;;;;;;;;;;;;;;;;5034498;28;19913;-81
2022/08/06 06:49:32;;;;;;;;;;;;;;;;;;5034308;28;19917;-82
2022/08/06 06:51:58;;;;;;;;;;;;;;;;;;5035736;28;19920;-81
2022/08/06 06:54:23;;;;;;;;;;;;;;;;;;5034112;28;19948;-80
2022/08/06 06:56:48;;;;;;;;;;;;;;;;;;5017972;28;19920;-80
2022/08/06 06:59:14;;;;;;;;;;;;;;;;;;5034429;28;19913;-81
2022/08/06 07:01:39;;;;;;;;;;;;;;;;;;5035820;28;19921;-82
2022/08/06 07:04:04;;;;;;;;;;;;;;;;;;5035755;28;19909;-81
2022/08/06 07:06:30;;;;;;;;;;;;;;;;;;5035503;28;19917;-81
2022/08/06 07:08:55;;;;;;;;;;;;;;;;;;5034630;28;20292;-81
2022/08/06 07:11:21;;;;;;;;;;;;;;;;;;5035643;28;20272;-81
2022/08/06 07:13:46;;;;;;;;;;;;;;;;;;5017561;28;20320;-80
2022/08/06 07:16:12;;;;;;;;;;;;;;;;;;5035606;28;20012;-80
2022/08/06 07:18:37;;;;;;;;;;;;;;;;;;5034210;28;19920;-81
2022/08/06 07:21:03;;;;;;;;;;;;;;;;;;5035209;28;19917;-81
2022/08/06 07:23:28;;;;;;;;;;;;;;;;;;5033384;28;19920;-80
2022/08/06 07:25:53;;;;;;;;;;;;;;;;;;5035465;28;20269;-81
2022/08/06 07:28:19;;;;;;;;;;;;;;;;;;5035292;28;19968;-79
2022/08/06 07:30:44;;;;;;;;;;;;;;;;;;5035298;28;20516;-80
2022/08/06 07:33:09;;;;;;;;;;;;;;;;;;5033621;28;20295;-80
2022/08/06 07:35:35;;;;;;;;;;;;;;;;;;5035697;28;19953;-81
2022/08/06 07:38:00;;;;;;;;;;;;;;;;;;5034533;28;19913;-80
2022/08/06 07:40:26;;;;;;;;;;;;;;;;;;5034770;28;20341;-81
2022/08/06 07:42:51;;;;;;;;;;;;;;;;;;5017213;28;20079;-81
2022/08/06 07:45:17;;;;;;;;;;;;;;;;;;5018531;28;20347;-80
2022/08/06 07:47:42;;;;;;;;;;;;;;;;;;5034642;28;20345;-81
2022/08/06 07:50:08;;;;;;;;;;;;;;;;;;5034432;28;20331;-80
2022/08/06 07:52:33;;;;;;;;;;;;;;;;;;5034003;28;19921;-81
2022/08/06 07:54:58;;;;;;;;;;;;;;;;;;5034776;28;20403;-80
2022/08/06 07:57:24;;;;;;;;;;;;;;;;;;5032531;28;19964;-81
2022/08/06 07:59:49;;;;;;;;;;;;;;;;;;5033564;28;20008;-81
2022/08/06 08:02:15;;;;;;;;;;;;;;;;;;5034174;28;19955;-81
2022/08/06 08:07:25;;;;;;;;;;;;;;;;;;5033914;28;20297;-81
2022/08/06 08:09:50;;;;;;;;;;;;;;;;;;5020292;28;19959;-81
2022/08/06 08:12:16;;;;;;;;;;;;;;;;;;5034279;28;19920;-82
2022/08/06 08:14:41;;;;;;;;;;;;;;;;;;5033019;28;20307;-82
2022/08/06 08:17:06;;;;;;;;;;;;;;;;;;5033040;28;19936;-81
2022/08/06 08:19:32;;;;;;;;;;;;;;;;;;5034645;28;19913;-81
2022/08/06 08:21:58;;;;;;;;;;;;;;;;;;5033934;28;20006;-81
2022/08/06 08:24:23;;;;;;;;;;;;;;;;;;5032642;28;20376;-80
2022/08/06 08:26:49;;;;;;;;;;;;;;;;;;5034384;28;20016;-80
2022/08/06 08:29:14;;;;;;;;;;;;;;;;;;5034030;28;20331;-81
2022/08/06 08:31:40;;;;;;;;;;;;;;;;;;5033711;28;19936;-81
2022/08/06 08:34:05;;;;;;;;;;;;;;;;;;5032536;28;19940;-81
2022/08/06 08:36:31;;;;;;;;;;;;;;;;;;5032587;28;19917;-83
2022/08/06 08:38:57;;;;;;;;;;;;;;;;;;5016316;28;20304;-81
2022/08/06 08:41:23;;;;;;;;;;;;;;;;;;5033662;28;19917;-80
2022/08/06 08:43:48;;;;;;;;;;;;;;;;;;5033226;28;20052;-80
2022/08/06 08:46:13;;;;;;;;;;;;;;;;;;5015642;28;19960;-81
2022/08/06 08:48:39;;;;;;;;;;;;;;;;;;5033757;28;19936;-81
2022/08/06 08:51:04;;;;;;;;;;;;;;;;;;5033517;28;19955;-81
2022/08/06 08:53:30;;;;;;;;;;;;;;;;;;5033122;28;20388;-82
2022/08/06 08:55:55;;;;;;;;;;;;;;;;;;5033234;28;19913;-81
2022/08/06 08:58:22;;;;;;;;;;;;;;;;;;5033469;28;19979;-82
2022/08/06 09:00:47;;;;;;;;;;;;;;;;;;5033197;28;20015;-81
2022/08/06 09:03:13;;;;;;;;;;;;;;;;;;5032691;28;20402;-81
2022/08/06 09:05:38;;;;;;;;;;;;;;;;;;5033225;28;19913;-80
2022/08/06 09:08:03;;;;;;;;;;;;;;;;;;5031459;28;19913;-81
2022/08/06 09:10:29;;;;;;;;;;;;;;;;;;5031856;28;19967;-81
2022/08/06 09:12:54;;;;;;;;;;;;;;;;;;5032679;28;20004;-81
2022/08/06 09:15:20;;;;;;;;;;;;;;;;;;5031724;28;19967;-82
2022/08/06 09:17:45;;;;;;;;;;;;;;;;;;5015297;28;20404;-80
2022/08/06 09:20:11;;;;;;;;;;;;;;;;;;5031726;28;19913;-82
2022/08/06 09:22:36;;;;;;;;;;;;;;;;;;5032748;28;19915;-82
2022/08/06 09:25:01;;;;;;;;;;;;;;;;;;4998972;28;19921;-82
2022/08/06 09:27:27;;;;;;;;;;;;;;;;;;5031633;28;20373;-81
2022/08/06 09:29:52;;;;;;;;;;;;;;;;;;5032880;28;19916;-81
2022/08/06 09:32:18;;;;;;;;;;;;;;;;;;5031479;28;19917;-81
2022/08/06 09:34:43;;;;;;;;;;;;;;;;;;5033410;28;19913;-82
2022/08/06 09:37:08;;;;;;;;;;;;;;;;;;5031269;28;19913;-82
2022/08/06 09:39:35;;;;;;;;;;;;;;;;;;5032675;28;19964;-81
2022/08/06 09:42:00;;;;;;;;;;;;;;;;;;5031173;28;19967;-81
2022/08/06 09:44:25;;;;;;;;;;;;;;;;;;5031202;28;19920;-81
2022/08/06 09:46:51;;;;;;;;;;;;;;;;;;5032488;28;19913;-81
2022/08/06 09:49:16;;;;;;;;;;;;;;;;;;5032531;28;19919;-80
2022/08/06 09:51:42;;;;;;;;;;;;;;;;;;5032442;28;20016;-80
2022/08/06 09:54:08;;;;;;;;;;;;;;;;;;5031918;28;19910;-82
2022/08/06 09:56:34;;;;;;;;;;;;;;;;;;5031207;28;20007;-80
2022/08/06 09:58:59;;;;;;;;;;;;;;;;;;5032364;28;20027;-81
2022/08/06 10:01:24;;;;;;;;;;;;;;;;;;5030920;28;19917;-81
2022/08/06 10:03:50;;;;;;;;;;;;;;;;;;5031689;28;19968;-81
2022/08/06 10:06:15;;;;;;;;;;;;;;;;;;5030829;28;19919;-81
2022/08/06 10:08:41;;;;;;;;;;;;;;;;;;5032520;28;19913;-81
2022/08/06 10:11:06;;;;;;;;;;;;;;;;;;5032013;28;19920;-83
2022/08/06 10:13:32;;;;;;;;;;;;;;;;;;5013737;28;20438;-81
2022/08/06 10:15:57;;;;;;;;;;;;;;;;;;5030679;28;19952;-82
2022/08/06 10:18:22;;;;;;;;;;;;;;;;;;5031032;28;19952;-82
2022/08/06 10:20:48;;;;;;;;;;;;;;;;;;5013975;28;19924;-82
2022/08/06 10:23:13;;;;;;;;;;;;;;;;;;5030891;28;19932;-82
2022/08/06 10:25:38;;;;;;;;;;;;;;;;;;5031964;28;19970;-82
2022/08/06 10:28:04;;;;;;;;;;;;;;;;;;5014941;28;20368;-81
2022/08/06 10:30:30;;;;;;;;;;;;;;;;;;5031682;28;19921;-82
2022/08/06 10:32:55;;;;;;;;;;;;;;;;;;5030696;28;19921;-81
2022/08/06 10:35:20;;;;;;;;;;;;;;;;;;5032588;28;19913;-82
2022/08/06 10:37:46;;;;;;;;;;;;;;;;;;5017492;28;19913;-83
2022/08/06 10:40:11;;;;;;;;;;;;;;;;;;5022101;28;19913;-82
2022/08/06 10:42:37;;;;;;;;;;;;;;;;;;5039459;28;19920;-81
2022/08/06 10:45:02;;;;;;;;;;;;;;;;;;5020165;28;19921;-83
2022/08/06 10:47:28;;;;;;;;;;;;;;;;;;5033361;28;20266;-83
2022/08/06 10:49:53;;;;;;;;;;;;;;;;;;5016680;28;19919;-83
2022/08/06 10:52:19;;;;;;;;;;;;;;;;;;5032704;28;19918;-83
2022/08/06 10:54:44;;;;;;;;;;;;;;;;;;5016593;28;19923;-82
2022/08/06 10:57:12;;;;;;;;;;;;;;;;;;5035639;28;19919;-81
2022/08/06 10:59:37;;;;;;;;;;;;;;;;;;5035418;28;19917;-82
2022/08/06 11:02:03;;;;;;;;;;;;;;;;;;5037699;28;20291;-80
2022/08/06 11:04:28;;;;;;;;;;;;;;;;;;5038378;28;19916;-81
2022/08/06 11:06:53;;;;;;;;;;;;;;;;;;5033785;28;19913;-83
2022/08/06 11:09:19;;;;;;;;;;;;;;;;;;5037302;28;19917;-81
2022/08/06 11:11:44;;;;;;;;;;;;;;;;;;5038212;28;20333;-82
2022/08/06 11:14:09;;;;;;;;;;;;;;;;;;5035303;28;20432;-83
2022/08/06 11:16:35;;;;;;;;;;;;;;;;;;5030823;28;19913;-83
2022/08/06 11:19:01;;;;;;;;;;;;;;;;;;5030975;28;20008;-82
2022/08/06 11:21:26;;;;;;;;;;;;;;;;;;5030814;28;19963;-82
2022/08/06 11:23:51;;;;;;;;;;;;;;;;;;5030556;28;19909;-82
2022/08/06 11:26:17;;;;;;;;;;;;;;;;;;5031585;28;19914;-82
2022/08/06 11:28:42;;;;;;;;;;;;;;;;;;5030583;28;20439;-82
2022/08/06 11:31:08;;;;;;;;;;;;;;;;;;5032867;28;19913;-84
2022/08/06 11:33:33;;;;;;;;;;;;;;;;;;5034688;28;19923;-82
2022/08/06 11:35:59;;;;;;;;;;;;;;;;;;5034536;28;19944;-83
2022/08/06 11:38:24;;;;;;;;;;;;;;;;;;5035589;28;19919;-83
2022/08/06 11:40:49;;;;;;;;;;;;;;;;;;5034420;28;19917;-82
2022/08/06 11:43:15;;;;;;;;;;;;;;;;;;5033380;28;19924;-82
2022/08/06 11:45:40;;;;;;;;;;;;;;;;;;5017445;28;19919;-81
2022/08/06 11:48:06;;;;;;;;;;;;;;;;;;5034773;28;20292;-82
2022/08/06 11:50:31;;;;;;;;;;;;;;;;;;5000811;28;20335;-82
2022/08/06 11:52:56;;;;;;;;;;;;;;;;;;5034345;28;19913;-82
2022/08/06 11:55:22;;;;;;;;;;;;;;;;;;5034499;28;19913;-83
2022/08/06 11:57:48;;;;;;;;;;;;;;;;;;5033216;28;19920;-82
2022/08/06 12:00:13;;;;;;;;;;;;;;;;;;5034465;28;19913;-82
2022/08/06 12:02:39;;;;;;;;;;;;;;;;;;5034212;28;19924;-82
2022/08/06 12:05:04;;;;;;;;;;;;;;;;;;5034404;28;19948;-82
2022/08/06 12:07:29;;;;;;;;;;;;;;;;;;5034409;28;19920;-81
2022/08/06 12:09:55;;;;;;;;;;;;;;;;;;5033410;28;19921;-82
2022/08/06 12:12:20;;;;;;;;;;;;;;;;;;5033464;28;20352;-82
2022/08/06 12:14:46;;;;;;;;;;;;;;;;;;5032896;28;19920;-82
2022/08/06 12:17:12;;;;;;;;;;;;;;;;;;5036113;28;19914;-82
2022/08/06 12:19:37;;;;;;;;;;;;;;;;;;5033397;28;19913;-81
2022/08/06 12:22:02;;;;;;;;;;;;;;;;;;5035616;28;19917;-81
2022/08/06 12:24:28;;;;;;;;;;;;;;;;;;5035224;28;19913;-81
2022/08/06 12:26:53;;;;;;;;;;;;;;;;;;5036527;28;20333;-79
2022/08/06 12:29:18;;;;;;;;;;;;;;;;;;5038861;28;19913;-79
2022/08/06 12:31:44;;;;;;;;;;;;;;;;;;5043746;28;20402;-79
2022/08/06 12:34:09;;;;;;;;;;;;;;;;;;5035280;28;19980;-80
2022/08/06 12:36:35;;;;;;;;;;;;;;;;;;5041010;28;19913;-78
2022/08/06 12:39:00;;;;;;;;;;;;;;;;;;5034644;28;20011;-79
2022/08/06 12:41:25;;;;;;;;;;;;;;;;;;5035847;28;19967;-79
2022/08/06 12:43:51;;;;;;;;;;;;;;;;;;5032517;28;20088;-80
2022/08/06 12:46:16;;;;;;;;;;;;;;;;;;5033500;28;20019;-80
2022/08/06 12:48:42;;;;;;;;;;;;;;;;;;5033685;28;19914;-79
2022/08/06 12:51:08;;;;;;;;;;;;;;;;;;5032661;28;20336;-81
2022/08/06 12:56:26;;;;;;;;;;;;;;;;;;4952926;29;20021;-80
2022/08/06 12:58:52;;;;;;;;;;;;;;;;;;4952924;29;20006;-80
2022/08/06 13:01:17;;;;;;;;;;;;;;;;;;4952836;29;19926;-80
2022/08/06 13:03:42;;;;;;;;;;;;;;;;;;4936472;29;19915;-79
2022/08/06 13:06:08;;;;;;;;;;;;;;;;;;4952908;29;19944;-80
2022/08/06 13:08:33;;;;;;;;;;;;;;;;;;4952634;29;20409;-80
2022/08/06 13:10:59;;;;;;;;;;;;;;;;;;4952344;29;20329;-79
2022/08/06 13:13:24;;;;;;;;;;;;;;;;;;4952287;29;19921;-80
2022/08/06 13:15:49;;;;;;;;;;;;;;;;;;4936575;29;20310;-80
2022/08/06 13:18:15;;;;;;;;;;;;;;;;;;4952815;29;19922;-79
2022/08/06 13:20:40;;;;;;;;;;;;;;;;;;4921757;29;19962;-78
2022/08/06 13:23:05;;;;;;;;;;;;;;;;;;4936169;29;20284;-80
2022/08/06 13:25:31;;;;;;;;;;;;;;;;;;4951991;29;19914;-79
2022/08/06 13:27:56;;;;;;;;;;;;;;;;;;4936164;29;19921;-79
2022/08/06 13:30:22;;;;;;;;;;;;;;;;;;4952467;29;19921;-79
2022/08/06 13:32:47;;;;;;;;;;;;;;;;;;4973393;28;19924;-81
2022/08/06 13:35:13;;;;;;;;;;;;;;;;;;5032932;28;19913;-80
2022/08/06 13:37:38;;;;;;;;;;;;;;;;;;5033128;28;19917;-79
2022/08/06 13:40:04;;;;;;;;;;;;;;;;;;5031224;28;19914;-79
2022/08/06 13:42:29;;;;;;;;;;;;;;;;;;5031240;28;19917;-80
2022/08/06 13:44:54;;;;;;;;;;;;;;;;;;5032189;28;19913;-79
2022/08/06 13:47:20;;;;;;;;;;;;;;;;;;5032292;28;19959;-80
2022/08/06 13:49:45;;;;;;;;;;;;;;;;;;5014572;28;19913;-81
2022/08/06 13:52:10;;;;;;;;;;;;;;;;;;5032610;28;20348;-79
2022/08/06 13:54:36;;;;;;;;;;;;;;;;;;5031212;28;19913;-80
2022/08/06 13:57:01;;;;;;;;;;;;;;;;;;5032367;28;20335;-79
2022/08/06 13:59:26;;;;;;;;;;;;;;;;;;5031416;28;19956;-79
2022/08/06 14:01:52;;;;;;;;;;;;;;;;;;5031104;28;20361;-79
2022/08/06 14:04:19;;;;;;;;;;;;;;;;;;5014897;28;20300;-79
2022/08/06 14:06:45;;;;;;;;;;;;;;;;;;5031592;28;20365;-78
2022/08/06 14:09:10;;;;;;;;;;;;;;;;;;5032096;28;20020;-80
2022/08/06 14:11:36;;;;;;;;;;;;;;;;;;5030740;28;19920;-79
2022/08/06 14:14:01;;;;;;;;;;;;;;;;;;5031815;28;20289;-81
2022/08/06 14:16:26;;;;;;;;;;;;;;;;;;5030653;28;19913;-80
2022/08/06 14:18:52;;;;;;;;;;;;;;;;;;5031802;28;20008;-79
2022/08/06 14:21:17;;;;;;;;;;;;;;;;;;5030529;28;19917;-81
2022/08/06 14:23:43;;;;;;;;;;;;;;;;;;5030377;28;19920;-80
2022/08/06 14:26:09;;;;;;;;;;;;;;;;;;4998110;28;20288;-80
2022/08/06 14:28:34;;;;;;;;;;;;;;;;;;5031964;28;19913;-79
2022/08/06 14:31:00;;;;;;;;;;;;;;;;;;5030637;28;19924;-80
2022/08/06 14:33:25;;;;;;;;;;;;;;;;;;5029970;28;19917;-80
2022/08/06 14:35:50;;;;;;;;;;;;;;;;;;5014315;28;19913;-79
2022/08/06 14:38:16;;;;;;;;;;;;;;;;;;5031809;28;19920;-79
2022/08/06 14:46:09;;;;;;;;;;;;;;;;;;5031836;28;19963;-79
2022/08/06 14:48:35;;;;;;;;;;;;;;;;;;5030836;28;20327;-78
2022/08/06 14:51:00;;;;;;;;;;;;;;;;;;5031664;28;19924;-80
2022/08/06 14:53:26;;;;;;;;;;;;;;;;;;5013845;28;20000;-80
2022/08/06 14:55:51;;;;;;;;;;;;;;;;;;5030903;28;19909;-80
2022/08/06 14:58:17;;;;;;;;;;;;;;;;;;5030172;28;19955;-81
2022/08/06 15:00:47;;;;;;;;;;;;;;;;;;5030511;28;20044;-79
2022/08/06 15:03:12;;;;;;;;;;;;;;;;;;5029912;28;20359;-81
2022/08/06 15:05:38;;;;;;;;;;;;;;;;;;5015045;28;19955;-80
2022/08/06 15:08:03;;;;;;;;;;;;;;;;;;5017650;28;19913;-79
2022/08/06 15:10:28;;;;;;;;;;;;;;;;;;5034582;28;19913;-80
2022/08/06 15:12:54;;;;;;;;;;;;;;;;;;5033885;28;19968;-80
2022/08/06 15:15:20;;;;;;;;;;;;;;;;;;5034232;28;19917;-80
2022/08/06 15:17:45;;;;;;;;;;;;;;;;;;5035376;28;19909;-80
2022/08/06 15:20:11;;;;;;;;;;;;;;;;;;5034667;28;19917;-79
2022/08/06 15:22:36;;;;;;;;;;;;;;;;;;5034161;28;19955;-80
2022/08/06 15:25:02;;;;;;;;;;;;;;;;;;5033989;28;20364;-81
2022/08/06 15:27:27;;;;;;;;;;;;;;;;;;5033943;28;19909;-80
2022/08/06 15:29:53;;;;;;;;;;;;;;;;;;5017609;28;19913;-81
2022/08/06 15:32:19;;;;;;;;;;;;;;;;;;5034846;28;19917;-80
2022/08/06 15:34:44;;;;;;;;;;;;;;;;;;5033378;28;19919;-79
2022/08/06 15:37:09;;;;;;;;;;;;;;;;;;5017203;28;19917;-79
2022/08/06 15:39:35;;;;;;;;;;;;;;;;;;5034937;28;19967;-80
2022/08/06 15:42:00;;;;;;;;;;;;;;;;;;5033458;28;20296;-79
2022/08/06 15:44:26;;;;;;;;;;;;;;;;;;5033148;28;19909;-79
2022/08/06 15:46:51;;;;;;;;;;;;;;;;;;5034707;28;19913;-80
2022/08/06 15:49:16;;;;;;;;;;;;;;;;;;5034836;28;19913;-80
2022/08/06 15:51:44;;;;;;;;;;;;;;;;;;5034513;28;19970;-80
2022/08/06 15:54:09;;;;;;;;;;;;;;;;;;5034015;28;19913;-80
2022/08/06 15:56:35;;;;;;;;;;;;;;;;;;5034492;28;20379;-80
2022/08/06 15:59:00;;;;;;;;;;;;;;;;;;5033856;28;20043;-80
2022/08/06 16:01:26;;;;;;;;;;;;;;;;;;5033096;28;20273;-80
2022/08/06 16:03:51;;;;;;;;;;;;;;;;;;5034192;28;19914;-78
2022/08/06 16:06:16;;;;;;;;;;;;;;;;;;5035019;28;20277;-79
2022/08/06 16:08:42;;;;;;;;;;;;;;;;;;5034657;28;19967;-79
2022/08/06 16:11:07;;;;;;;;;;;;;;;;;;5034247;28;19916;-79
2022/08/06 16:13:32;;;;;;;;;;;;;;;;;;5032773;28;19919;-80
2022/08/06 16:15:58;;;;;;;;;;;;;;;;;;5036332;28;19920;-80
2022/08/06 16:18:23;;;;;;;;;;;;;;;;;;5043209;28;19913;-79
2022/08/06 16:20:49;;;;;;;;;;;;;;;;;;5043274;28;20350;-80
2022/08/06 16:23:14;;;;;;;;;;;;;;;;;;5046188;28;19972;-79
2022/08/06 16:25:39;;;;;;;;;;;;;;;;;;5049849;28;19987;-79
2022/08/06 16:28:05;;;;;;;;;;;;;;;;;;5048235;28;20386;-79
2022/08/06 16:30:30;;;;;;;;;;;;;;;;;;5041022;28;19913;-78
2022/08/06 16:32:55;;;;;;;;;;;;;;;;;;5041635;28;19992;-78
2022/08/06 16:35:21;;;;;;;;;;;;;;;;;;5037179;28;19920;-78
2022/08/06 16:37:46;;;;;;;;;;;;;;;;;;5034232;28;19920;-79
2022/08/06 16:40:11;;;;;;;;;;;;;;;;;;5032826;28;20300;-79
2022/08/06 16:42:37;;;;;;;;;;;;;;;;;;5015446;28;19976;-79
2022/08/06 16:45:02;;;;;;;;;;;;;;;;;;5032551;28;19959;-79